createdAt,value
2024-03-05T00:00:13.414Z,79.03
2024-03-05T00:02:42.039Z,79.27
2024-03-05T00:05:10.773Z,78.95
2024-03-05T00:07:38.799Z,79.30
2024-03-05T00:10:08.561Z,79.62
2024-03-05T00:12:36.973Z,80.00
2024-03-05T00:15:06.419Z,80.48
2024-03-05T00:17:35.887Z,80.50
2024-03-05T00:20:04.488Z,80.88
2024-03-05T00:22:32.649Z,80.79
2024-03-05T00:25:00.916Z,81.10
2024-03-05T00:27:29.037Z,81.10
2024-03-05T00:29:57.900Z,81.13
2024-03-05T00:32:26.014Z,81.00
2024-03-05T00:34:55.517Z,80.71
2024-03-05T00:37:23.761Z,81.11
2024-03-05T00:39:52.010Z,81.25
2024-03-05T00:42:20.133Z,81.17
2024-03-05T00:44:48.274Z,80.97
2024-03-05T00:47:16.404Z,80.96
2024-03-05T00:49:44.653Z,81.02
2024-03-05T00:52:14.835Z,81.20
2024-03-05T00:54:42.956Z,81.30
2024-03-05T00:57:11.157Z,81.24
2024-03-05T00:59:39.212Z,81.30
2024-03-05T01:02:07.626Z,81.01
2024-03-05T01:04:35.896Z,81.20
2024-03-05T01:07:03.983Z,81.41
2024-03-05T01:09:33.500Z,81.65
2024-03-05T01:12:02.313Z,81.89
2024-03-05T01:14:31.828Z,81.84
2024-03-05T01:16:59.021Z,81.66
2024-03-05T01:19:27.098Z,81.58
2024-03-05T01:21:55.636Z,81.61
2024-03-05T01:24:26.235Z,81.05
2024-03-05T01:26:55.952Z,80.77
2024-03-05T01:29:24.022Z,80.93
2024-03-05T01:31:57.464Z,81.02
2024-03-05T01:34:25.693Z,81.22
2024-03-05T01:36:58.159Z,81.42
2024-03-05T01:39:27.224Z,81.06
2024-03-05T01:41:57.012Z,81.55
2024-03-05T01:44:25.754Z,81.45
2024-03-05T01:46:57.521Z,80.71
2024-03-05T01:49:27.227Z,80.73
2024-03-05T01:51:58.583Z,80.64
2024-03-05T01:54:30.073Z,80.29
2024-03-05T01:57:04.933Z,80.23
2024-03-05T01:59:33.316Z,80.65
2024-03-05T02:02:01.528Z,80.57
2024-03-05T02:04:32.904Z,80.61
2024-03-05T02:07:03.766Z,81.10
2024-03-05T02:09:32.150Z,81.11
2024-03-05T02:12:04.249Z,80.98
2024-03-05T02:14:33.708Z,81.34
2024-03-05T02:17:03.107Z,81.55
2024-03-05T02:19:31.339Z,81.71
2024-03-05T02:22:03.798Z,82.04
2024-03-05T02:24:32.396Z,82.13
2024-03-05T02:27:03.017Z,82.19
2024-03-05T02:29:31.231Z,82.21
2024-03-05T02:31:59.816Z,82.33
2024-03-05T02:34:28.878Z,82.26
2024-03-05T02:36:57.777Z,81.72
2024-03-05T02:39:28.485Z,81.84
2024-03-05T02:41:56.601Z,81.27
2024-03-05T02:44:24.808Z,81.32
2024-03-05T02:46:53.047Z,81.37
2024-03-05T02:49:21.422Z,81.04
2024-03-05T02:51:50.374Z,81.65
2024-03-05T02:54:18.432Z,81.79
2024-03-05T02:56:48.073Z,81.76
2024-03-05T02:59:16.607Z,81.97
2024-03-05T03:01:48.932Z,82.13
2024-03-05T03:04:17.637Z,81.88
2024-03-05T03:06:45.738Z,81.91
2024-03-05T03:09:14.009Z,81.83
2024-03-05T03:11:43.194Z,81.89
2024-03-05T03:14:13.413Z,82.11
2024-03-05T03:16:44.910Z,82.15
2024-03-05T03:19:13.560Z,81.96
2024-03-05T03:21:42.474Z,81.66
2024-03-05T03:24:12.997Z,81.94
2024-03-05T03:26:41.179Z,82.66
2024-03-05T03:29:12.617Z,82.87
2024-03-05T03:31:47.120Z,82.77
2024-03-05T03:34:17.486Z,82.86
2024-03-05T03:36:45.945Z,82.77
2024-03-05T03:39:24.851Z,83.11
2024-03-05T03:41:56.286Z,83.08
2024-03-05T03:44:24.703Z,83.24
2024-03-05T03:46:54.731Z,83.16
2024-03-05T03:49:25.469Z,82.96
2024-03-05T03:51:55.463Z,83.11
2024-03-05T03:54:24.226Z,83.13
2024-03-05T03:56:52.832Z,83.06
2024-03-05T03:59:21.432Z,83.04
2024-03-05T04:01:51.047Z,83.04
2024-03-05T04:04:20.569Z,83.15
2024-03-05T04:06:49.108Z,83.04
2024-03-05T04:09:18.168Z,83.23
2024-03-05T04:11:47.557Z,83.48
2024-03-05T04:14:15.861Z,83.17
2024-03-05T04:16:44.875Z,82.94
2024-03-05T04:19:13.300Z,83.36
2024-03-05T04:21:47.309Z,83.46
2024-03-05T04:24:15.529Z,83.17
2024-03-05T04:26:44.382Z,83.25
2024-03-05T04:29:18.216Z,83.18
2024-03-05T04:31:56.361Z,83.53
2024-03-05T04:34:24.990Z,83.26
2024-03-05T04:36:56.264Z,82.40
2024-03-05T04:39:26.173Z,81.72
2024-03-05T04:41:54.643Z,81.37
2024-03-05T04:44:22.911Z,81.18
2024-03-05T04:46:50.967Z,80.59
2024-03-05T04:49:19.341Z,80.52
2024-03-05T04:51:47.909Z,79.94
2024-03-05T04:54:17.448Z,79.59
2024-03-05T04:56:45.545Z,79.34
2024-03-05T04:59:13.729Z,79.26
2024-03-05T05:01:45.588Z,79.37
2024-03-05T05:04:13.764Z,79.00
2024-03-05T05:06:42.293Z,79.10
2024-03-05T05:09:10.596Z,78.69
2024-03-05T05:11:40.297Z,78.48
2024-03-05T05:14:09.172Z,78.23
2024-03-05T05:16:37.573Z,77.85
2024-03-05T05:19:06.417Z,77.83
2024-03-05T05:21:35.734Z,77.26
2024-03-05T05:24:05.943Z,77.19
2024-03-05T05:26:34.294Z,76.95
2024-03-05T05:29:04.098Z,76.83
2024-03-05T05:31:32.969Z,76.48
2024-03-05T05:34:01.365Z,76.16
2024-03-05T05:36:29.580Z,75.76
2024-03-05T05:38:58.131Z,75.19
2024-03-05T05:41:26.399Z,74.51
2024-03-05T05:43:54.573Z,74.33
2024-03-05T05:46:26.212Z,73.58
2024-03-05T05:48:55.742Z,72.91
2024-03-05T05:51:25.248Z,72.74
2024-03-05T05:53:55.121Z,72.48
2024-03-05T05:56:23.274Z,71.97
2024-03-05T05:58:51.881Z,72.07
2024-03-05T06:01:20.351Z,75.68
2024-03-05T06:03:50.406Z,76.04
2024-03-05T06:06:21.226Z,76.59
2024-03-05T06:08:49.834Z,76.46
2024-03-05T06:11:18.251Z,75.39
2024-03-05T06:13:46.606Z,75.60
2024-03-05T06:16:14.726Z,75.05
2024-03-05T06:18:42.744Z,73.35
2024-03-05T06:21:12.715Z,73.87
2024-03-05T06:23:40.738Z,73.25
2024-03-05T06:26:09.407Z,71.95
2024-03-05T06:28:39.162Z,72.44
2024-03-05T06:31:07.422Z,72.99
2024-03-05T06:33:35.704Z,73.66
2024-03-05T06:36:08.086Z,73.44
2024-03-05T06:38:39.105Z,73.06
2024-03-05T06:41:07.497Z,72.69
2024-03-05T06:43:38.146Z,71.37
2024-03-05T06:46:11.334Z,72.51
2024-03-05T06:48:48.553Z,72.68
2024-03-05T06:51:28.356Z,73.50
2024-03-05T06:54:15.645Z,74.02
2024-03-05T06:56:43.998Z,74.12
2024-03-05T06:59:12.292Z,74.00
2024-03-05T07:01:40.698Z,73.78
2024-03-05T07:04:10.501Z,73.79
2024-03-05T07:06:39.229Z,73.89
2024-03-05T07:09:12.891Z,73.64
2024-03-05T07:11:41.295Z,73.53
2024-03-05T07:14:09.848Z,73.41
2024-03-05T07:16:38.011Z,73.20
2024-03-05T07:19:06.261Z,72.85
2024-03-05T07:21:35.319Z,72.12
2024-03-05T07:24:04.050Z,71.82
2024-03-05T07:26:35.971Z,71.76
2024-03-05T07:29:04.216Z,71.89
2024-03-05T07:31:33.172Z,71.95
2024-03-05T07:34:01.257Z,72.03
2024-03-05T07:36:29.997Z,72.13
2024-03-05T07:38:58.284Z,72.13
2024-03-05T07:41:33.364Z,72.34
2024-03-05T07:44:05.988Z,72.76
2024-03-05T07:46:35.575Z,72.95
2024-03-05T07:49:04.294Z,72.91
2024-03-05T07:51:41.181Z,73.20
2024-03-05T07:54:15.057Z,73.06
2024-03-05T07:56:44.509Z,73.48
2024-03-05T07:59:14.785Z,73.64
2024-03-05T08:01:43.181Z,73.11
2024-03-05T08:04:11.705Z,73.33
2024-03-05T08:06:40.030Z,72.63
2024-03-05T08:09:09.308Z,72.58
2024-03-05T08:11:37.923Z,72.06
2024-03-05T08:14:09.086Z,72.33
2024-03-05T08:16:40.503Z,72.22
2024-03-05T08:19:09.419Z,71.81
2024-03-05T08:21:37.853Z,71.33
2024-03-05T08:24:07.819Z,71.13
2024-03-05T08:26:36.216Z,70.51
2024-03-05T08:29:05.050Z,70.69
2024-03-05T08:31:33.359Z,70.33
2024-03-05T08:34:05.746Z,70.15
2024-03-05T08:36:38.470Z,69.67
2024-03-05T08:39:18.714Z,69.41
2024-03-05T08:41:48.409Z,69.17
2024-03-05T08:44:17.913Z,69.25
2024-03-05T08:46:46.203Z,69.57
2024-03-05T08:49:15.970Z,69.46
2024-03-05T08:51:46.594Z,68.70
2024-03-05T08:54:17.377Z,69.09
2024-03-05T08:56:46.144Z,68.21
2024-03-05T08:59:14.416Z,67.90
2024-03-05T09:01:42.754Z,67.72
2024-03-05T09:04:11.293Z,67.32
2024-03-05T09:06:41.924Z,67.30
2024-03-05T09:09:12.428Z,66.25
2024-03-05T09:11:41.210Z,66.18
2024-03-05T09:14:10.186Z,65.66
2024-03-05T09:16:39.454Z,65.63
2024-03-05T09:19:08.181Z,64.53
2024-03-05T09:21:37.240Z,64.83
2024-03-05T09:24:08.095Z,65.31
2024-03-05T09:26:36.645Z,64.84
2024-03-05T09:29:04.860Z,64.73
2024-03-05T09:31:34.218Z,64.25
2024-03-05T09:34:03.558Z,63.65
2024-03-05T09:36:34.362Z,64.08
2024-03-05T09:39:10.826Z,63.75
2024-03-05T09:41:43.911Z,63.23
2024-03-05T09:44:13.515Z,62.83
2024-03-05T09:46:43.545Z,62.69
2024-03-05T09:49:21.388Z,62.22
2024-03-05T09:51:52.501Z,62.05
2024-03-05T09:54:20.665Z,61.42
2024-03-05T09:56:54.980Z,61.77
2024-03-05T09:59:23.248Z,60.11
2024-03-05T10:01:52.052Z,61.13
2024-03-05T10:04:21.200Z,61.10
2024-03-05T10:06:50.373Z,58.52
2024-03-05T10:09:22.419Z,58.12
2024-03-05T10:11:53.541Z,57.83
2024-03-05T10:14:25.429Z,59.04
2024-03-05T10:17:01.648Z,59.73
2024-03-05T10:19:29.966Z,60.14
2024-03-05T10:22:10.306Z,60.49
2024-03-05T10:24:38.641Z,59.94
2024-03-05T10:27:08.458Z,59.49
2024-03-05T10:29:37.745Z,59.45
2024-03-05T10:32:06.633Z,58.86
2024-03-05T10:34:36.253Z,58.49
2024-03-05T10:37:06.326Z,58.14
2024-03-05T10:39:34.830Z,56.81
2024-03-05T10:42:05.090Z,57.45
2024-03-05T10:44:37.794Z,58.36
2024-03-05T10:47:07.917Z,57.66
2024-03-05T10:49:37.834Z,56.34
2024-03-05T10:52:07.665Z,56.76
2024-03-05T10:54:38.875Z,55.53
2024-03-05T10:57:08.283Z,55.40
2024-03-05T10:59:42.335Z,55.50
2024-03-05T11:02:14.450Z,55.48
2024-03-05T11:04:44.832Z,56.52
2024-03-05T11:07:14.506Z,56.55
2024-03-05T11:09:43.620Z,57.32
2024-03-05T11:12:15.057Z,57.64
2024-03-05T11:14:47.986Z,58.54
2024-03-05T11:17:17.402Z,59.56
2024-03-05T11:19:46.730Z,60.75
2024-03-05T11:22:23.516Z,60.70
2024-03-05T11:24:58.619Z,60.50
2024-03-05T11:27:27.922Z,60.38
2024-03-05T11:30:14.176Z,60.09
2024-03-05T11:32:42.838Z,59.41
2024-03-05T11:35:12.478Z,59.17
2024-03-05T11:37:48.962Z,58.18
2024-03-05T11:40:19.292Z,59.12
2024-03-05T11:42:48.349Z,60.44
2024-03-05T11:45:46.151Z,60.24
2024-03-05T11:48:16.035Z,59.94
2024-03-05T11:50:44.443Z,60.09
2024-03-05T11:53:13.337Z,61.11
2024-03-05T11:55:42.129Z,60.47
2024-03-05T11:58:12.059Z,60.52
2024-03-05T12:00:40.622Z,60.50
2024-03-05T12:03:11.127Z,59.49
2024-03-05T12:05:45.629Z,59.61
2024-03-05T12:08:13.964Z,60.17
2024-03-05T12:10:42.569Z,59.92
2024-03-05T12:13:12.825Z,59.42
2024-03-05T12:15:41.125Z,59.62
2024-03-05T12:18:12.651Z,59.78
2024-03-05T12:20:42.861Z,60.42
2024-03-05T12:23:12.278Z,60.92
2024-03-05T12:25:43.567Z,59.83
2024-03-05T12:28:12.923Z,61.36
2024-03-05T12:30:41.956Z,61.08
2024-03-05T12:33:11.534Z,60.34
2024-03-05T12:35:40.422Z,61.16
2024-03-05T12:38:08.565Z,61.63
2024-03-05T12:40:36.968Z,62.04
2024-03-05T12:43:09.839Z,62.35
2024-03-05T12:45:38.775Z,63.47
2024-03-05T12:48:10.173Z,63.37
2024-03-05T12:50:41.123Z,63.38
2024-03-05T12:53:09.722Z,63.27
2024-03-05T12:55:38.512Z,63.77
2024-03-05T12:58:08.136Z,63.76
2024-03-05T13:00:36.894Z,63.72
2024-03-05T13:03:06.270Z,63.14
2024-03-05T13:05:34.497Z,63.00
2024-03-05T13:08:05.680Z,63.67
2024-03-05T13:10:34.623Z,64.71
2024-03-05T13:13:05.694Z,64.93
2024-03-05T13:15:33.854Z,65.35
2024-03-05T13:18:02.118Z,65.46
2024-03-05T13:20:31.580Z,65.96
2024-03-05T13:23:00.886Z,67.07
2024-03-05T13:25:31.695Z,67.91
2024-03-05T13:28:01.774Z,67.86
2024-03-05T13:30:30.029Z,68.78
2024-03-05T13:33:02.683Z,70.19
2024-03-05T13:35:33.582Z,71.63
2024-03-05T13:38:02.497Z,71.85
2024-03-05T13:40:34.302Z,71.94
2024-03-05T13:43:02.858Z,73.12
2024-03-05T13:45:31.736Z,73.99
2024-03-05T13:48:00.094Z,75.12
2024-03-05T13:50:34.911Z,76.85
2024-03-05T13:53:03.155Z,77.08
2024-03-05T13:55:32.724Z,77.46
2024-03-05T13:58:00.882Z,77.35
2024-03-05T14:00:32.827Z,77.92
2024-03-05T14:03:01.399Z,78.63
2024-03-05T14:05:29.798Z,78.73
2024-03-05T14:07:59.382Z,78.70
2024-03-05T14:10:27.615Z,78.52
2024-03-05T14:12:57.202Z,78.71
2024-03-05T14:15:26.079Z,78.43
2024-03-05T14:17:54.554Z,78.32
2024-03-05T14:20:29.509Z,78.20
2024-03-05T14:22:57.982Z,78.11
2024-03-05T14:25:26.177Z,77.92
2024-03-05T14:27:54.820Z,78.00
2024-03-05T14:30:27.211Z,77.77
2024-03-05T14:33:00.217Z,77.90
2024-03-05T14:35:28.703Z,77.90
2024-03-05T14:37:57.600Z,78.56
2024-03-05T14:40:27.342Z,77.77
2024-03-05T14:42:55.659Z,77.41
2024-03-05T14:45:26.225Z,77.79
2024-03-05T14:47:54.328Z,77.37
2024-03-05T14:50:23.814Z,77.60
2024-03-05T14:52:54.016Z,77.48
2024-03-05T14:55:23.776Z,77.43
2024-03-05T14:57:52.089Z,77.16
2024-03-05T15:00:24.110Z,76.52
2024-03-05T15:02:54.454Z,75.99
2024-03-05T15:05:23.723Z,76.43
2024-03-05T15:07:54.122Z,75.73
2024-03-05T15:10:23.219Z,75.80
2024-03-05T15:12:52.888Z,75.41
2024-03-05T15:15:22.226Z,75.36
2024-03-05T15:17:50.719Z,74.32
2024-03-05T15:20:23.257Z,74.33
2024-03-05T15:22:52.211Z,74.60
2024-03-05T15:25:22.847Z,73.88
2024-03-05T15:30:22.685Z,72.64
2024-03-05T15:32:52.925Z,73.02
2024-03-05T15:35:23.328Z,73.28
2024-03-05T15:37:53.108Z,72.93
2024-03-05T15:40:23.759Z,73.19
2024-03-05T15:42:53.840Z,72.73
2024-03-05T15:45:23.527Z,72.81
2024-03-05T15:47:54.018Z,72.97
2024-03-05T15:50:25.268Z,72.85
2024-03-05T15:52:54.849Z,73.11
2024-03-05T15:55:25.685Z,73.45
2024-03-05T15:58:09.347Z,73.46
2024-03-05T16:00:38.144Z,73.66
2024-03-05T16:03:08.718Z,73.44
2024-03-05T16:05:47.588Z,73.64
2024-03-05T16:08:25.504Z,73.34
2024-03-05T16:10:55.015Z,73.27
2024-03-05T16:13:23.973Z,72.87
2024-03-05T16:15:52.981Z,72.81
2024-03-05T16:18:23.089Z,72.76
2024-03-05T16:20:53.932Z,72.86
2024-03-05T16:23:22.895Z,73.08
2024-03-05T16:25:52.785Z,73.17
2024-03-05T16:28:21.942Z,72.54
2024-03-05T16:30:50.232Z,72.25
2024-03-05T16:33:18.276Z,72.78
2024-03-05T16:35:48.163Z,72.62
2024-03-05T16:38:18.659Z,72.43
2024-03-05T16:40:46.855Z,72.68
2024-03-05T16:43:16.348Z,72.80
2024-03-05T16:45:44.523Z,71.54
2024-03-05T16:48:12.846Z,70.26
2024-03-05T16:50:41.445Z,70.73
2024-03-05T16:53:11.320Z,70.75
2024-03-05T16:55:43.270Z,70.96
2024-03-05T16:58:15.022Z,71.03
2024-03-05T17:00:52.504Z,70.80
2024-03-05T17:03:22.832Z,70.69
2024-03-05T17:05:54.443Z,71.05
2024-03-05T17:08:24.942Z,71.31
2024-03-05T17:10:56.521Z,71.65
2024-03-05T17:13:28.152Z,71.49
2024-03-05T17:16:00.730Z,72.20
2024-03-05T17:18:34.086Z,73.20
2024-03-05T17:21:05.204Z,73.05
2024-03-05T17:23:33.546Z,72.43
2024-03-05T17:26:03.588Z,72.64
2024-03-05T17:28:32.447Z,73.35
2024-03-05T17:31:00.917Z,74.63
2024-03-05T17:33:29.761Z,75.12
2024-03-05T17:35:59.391Z,75.11
2024-03-05T17:38:31.608Z,75.32
2024-03-05T17:41:04.739Z,75.82
2024-03-05T17:43:33.048Z,75.90
2024-03-05T17:46:02.674Z,75.78
2024-03-05T17:48:30.985Z,76.18
2024-03-05T17:50:59.457Z,76.28
2024-03-05T17:53:27.650Z,75.97
2024-03-05T17:55:57.152Z,77.04
2024-03-05T17:58:26.961Z,76.84
2024-03-05T18:00:55.328Z,77.16
2024-03-05T18:03:24.525Z,77.20
2024-03-05T18:05:53.881Z,76.92
2024-03-05T18:08:22.424Z,76.60
2024-03-05T18:10:50.921Z,76.87
2024-03-05T18:13:22.275Z,77.18
2024-03-05T18:15:53.375Z,77.40
2024-03-05T18:18:21.553Z,77.89
2024-03-05T18:20:50.217Z,78.40
2024-03-05T18:23:18.743Z,78.56
2024-03-05T18:25:48.245Z,79.16
2024-03-05T18:28:21.389Z,79.14
2024-03-05T18:30:51.478Z,79.33
2024-03-05T18:33:20.102Z,79.64
2024-03-05T18:35:48.706Z,79.75
2024-03-05T18:38:24.939Z,79.39
2024-03-05T18:41:01.436Z,79.18
2024-03-05T18:43:31.651Z,78.61
2024-03-05T18:46:05.024Z,78.28
2024-03-05T18:48:34.951Z,78.01
2024-03-05T18:51:03.524Z,77.61
2024-03-05T18:53:39.545Z,78.08
2024-03-05T18:56:13.881Z,77.43
2024-03-05T18:58:44.634Z,77.35
2024-03-05T19:01:15.768Z,76.83
2024-03-05T19:03:45.856Z,77.46
2024-03-05T19:06:14.152Z,78.56
2024-03-05T19:08:42.448Z,78.20
2024-03-05T19:11:12.497Z,78.76
2024-03-05T19:13:43.115Z,78.68
2024-03-05T19:16:11.587Z,78.84
2024-03-05T19:18:41.196Z,78.66
2024-03-05T19:21:12.626Z,78.52
2024-03-05T19:23:42.704Z,78.64
2024-03-05T19:26:13.533Z,78.43
2024-03-05T19:28:41.899Z,78.51
2024-03-05T19:31:10.816Z,78.88
2024-03-05T19:33:39.163Z,78.99
2024-03-05T19:36:11.208Z,78.24
2024-03-05T19:38:41.804Z,78.48
2024-03-05T19:41:11.280Z,78.39
2024-03-05T19:43:41.030Z,77.70
2024-03-05T19:46:09.656Z,77.74
2024-03-05T19:48:39.349Z,77.99
2024-03-05T19:51:11.540Z,78.09
2024-03-05T19:53:39.817Z,78.28
2024-03-05T19:56:08.414Z,78.63
2024-03-05T19:58:36.594Z,78.97
2024-03-05T20:01:08.324Z,78.79
2024-03-05T20:03:37.211Z,78.96
2024-03-05T20:06:09.384Z,78.85
2024-03-05T20:08:39.354Z,78.55
2024-03-05T20:11:12.109Z,77.94
2024-03-05T20:13:40.964Z,77.98
2024-03-05T20:16:10.676Z,77.90
2024-03-05T20:18:39.160Z,77.61
2024-03-05T20:21:09.882Z,77.84
2024-03-05T20:23:44.019Z,78.19
2024-03-05T20:26:12.618Z,78.54
2024-03-05T20:28:40.671Z,77.72
2024-03-05T20:31:11.006Z,77.90
2024-03-05T20:33:40.719Z,78.07
2024-03-05T20:36:11.009Z,78.17
2024-03-05T20:38:39.521Z,78.08
2024-03-05T20:41:09.571Z,78.37
2024-03-05T20:43:37.861Z,78.23
2024-03-05T20:46:06.207Z,78.17
2024-03-05T20:48:35.461Z,77.97
2024-03-05T20:51:03.958Z,77.67
2024-03-05T20:53:32.103Z,77.74
2024-03-05T20:56:00.309Z,78.19
2024-03-05T20:58:32.259Z,78.07
2024-03-05T21:01:00.347Z,78.16
2024-03-05T21:03:31.637Z,77.76
2024-03-05T21:05:59.805Z,78.45
2024-03-05T21:08:28.016Z,78.61
2024-03-05T21:10:56.244Z,78.34
2024-03-05T21:13:27.140Z,78.31
2024-03-05T21:15:56.616Z,79.05
2024-03-05T21:18:24.785Z,79.57
2024-03-05T21:20:52.811Z,80.05
2024-03-05T21:23:21.086Z,80.62
2024-03-05T21:26:03.183Z,80.89
2024-03-05T21:28:37.921Z,80.88
2024-03-05T21:31:07.984Z,80.53
2024-03-05T21:33:36.029Z,79.99
2024-03-05T21:36:05.456Z,79.75
2024-03-05T21:38:33.547Z,79.42
2024-03-05T21:41:01.764Z,78.63
2024-03-05T21:43:29.184Z,79.05
2024-03-05T21:45:58.043Z,79.34
2024-03-05T21:48:27.848Z,79.25
2024-03-05T21:51:05.828Z,78.82
2024-03-05T21:53:37.971Z,78.89
2024-03-05T21:56:06.997Z,78.73
2024-03-05T21:58:35.238Z,78.79
2024-03-05T22:01:03.403Z,78.55
2024-03-05T22:03:33.293Z,78.76
2024-03-05T22:06:08.172Z,78.74
2024-03-05T22:08:40.696Z,78.61
2024-03-05T22:11:09.505Z,78.36
2024-03-05T22:13:37.725Z,78.21
2024-03-05T22:16:06.996Z,78.21
2024-03-05T22:18:37.644Z,78.98
2024-03-05T22:21:06.912Z,79.72
2024-03-05T22:23:34.981Z,79.97
2024-03-05T22:26:03.349Z,80.53
2024-03-05T22:28:31.518Z,80.46
2024-03-05T22:31:00.003Z,80.94
2024-03-05T22:33:28.182Z,80.57
2024-03-05T22:35:58.254Z,80.06
2024-03-05T22:38:26.464Z,79.85
2024-03-05T22:40:54.752Z,80.05
2024-03-05T22:43:24.220Z,80.31
2024-03-05T22:45:52.733Z,80.39
2024-03-05T22:48:23.540Z,80.64
2024-03-05T22:50:54.013Z,80.74
2024-03-05T22:53:23.912Z,80.80
2024-03-05T22:55:52.444Z,80.40
2024-03-05T22:58:23.714Z,80.23
2024-03-05T23:00:55.101Z,80.02
2024-03-05T23:03:23.478Z,79.49
2024-03-05T23:05:51.512Z,79.79
2024-03-05T23:08:19.891Z,79.77
2024-03-05T23:10:50.115Z,80.20
2024-03-05T23:13:18.193Z,80.22
2024-03-05T23:15:46.494Z,80.26
2024-03-05T23:18:14.578Z,80.26
2024-03-05T23:20:42.794Z,80.22
2024-03-05T23:23:12.735Z,79.90
2024-03-05T23:25:40.845Z,79.71
2024-03-05T23:28:13.046Z,79.88
2024-03-05T23:30:41.281Z,80.31
2024-03-05T23:33:09.299Z,80.58
2024-03-05T23:35:37.671Z,81.37
2024-03-05T23:38:06.272Z,81.80
2024-03-05T23:40:34.514Z,82.29
2024-03-05T23:43:02.878Z,82.11
2024-03-05T23:45:32.498Z,82.16
2024-03-05T23:48:00.748Z,82.21
2024-03-05T23:50:28.975Z,82.47
2024-03-05T23:52:57.170Z,82.76
2024-03-05T23:55:25.596Z,83.00
2024-03-05T23:57:53.744Z,82.74
